Time;durP1;ratioP1;P1;durP2;ratioP2;P2;SDS_P1;SDS_P2;PMS_P1;PMS_P2;Temp;Humidity;BMP_temperature;BMP_pressure;BME280_temperature;BME280_humidity;BME280_pressure;Samples;Min_cycle;Max_cycle;Signal;HPM_P1;HPM_P2
2023/08/15 00:00:13;;;;;;;316.33;302.27;;;20.40;99.90;;;;;;5054935;28;20452;-64
2023/08/15 00:02:40;;;;;;;297.97;284.50;;;20.40;99.90;;;;;;5054795;28;20455;-64
2023/08/15 00:05:07;;;;;;;315.30;300.87;;;20.20;99.90;;;;;;5054947;28;20452;-64
2023/08/15 00:07:34;;;;;;;329.30;314.27;;;20.10;99.90;;;;;;5054669;28;20448;-64
2023/08/15 00:10:01;;;;;;;347.90;331.50;;;19.90;99.90;;;;;;5054574;28;20790;-64
2023/08/15 00:12:29;;;;;;;376.73;357.90;;;19.80;99.90;;;;;;5054557;28;20451;-64
2023/08/15 00:14:56;;;;;;;411.03;389.83;;;19.70;99.90;;;;;;5054639;28;20451;-64
2023/08/15 00:17:23;;;;;;;434.90;412.00;;;19.70;99.90;;;;;;5054457;28;20487;-64
2023/08/15 00:19:50;;;;;;;453.37;428.97;;;19.60;99.90;;;;;;5054636;28;20546;-64
2023/08/15 00:22:17;;;;;;;488.73;460.33;;;19.50;99.90;;;;;;5054146;28;20452;-64
2023/08/15 00:24:44;;;;;;;509.93;479.33;;;19.40;99.90;;;;;;5054263;28;20452;-64
2023/08/15 00:27:11;;;;;;;560.20;525.27;;;19.40;99.90;;;;;;5054469;28;20448;-64
2023/08/15 00:29:39;;;;;;;584.57;547.27;;;19.50;99.90;;;;;;5054286;28;20454;-64
2023/08/15 00:32:06;;;;;;;586.03;548.20;;;19.50;99.90;;;;;;5054016;28;20486;-64
2023/08/15 00:34:33;;;;;;;552.93;519.20;;;19.50;99.90;;;;;;5054041;28;20458;-64
2023/08/15 00:37:00;;;;;;;538.73;506.23;;;19.50;99.90;;;;;;5054060;28;20476;-64
2023/08/15 00:39:27;;;;;;;525.67;494.23;;;19.50;99.90;;;;;;5053817;28;20456;-64
2023/08/15 00:41:53;;;;;;;512.07;481.60;;;19.50;99.90;;;;;;5054078;28;20827;-64
2023/08/15 00:44:20;;;;;;;509.40;478.40;;;19.50;99.90;;;;;;5054076;28;20462;-64
2023/08/15 00:46:49;;;;;;;491.00;461.47;;;19.50;99.90;;;;;;5053872;28;20450;-64
2023/08/15 00:49:15;;;;;;;517.17;486.00;;;19.50;99.90;;;;;;5053665;28;20459;-64
2023/08/15 00:51:43;;;;;;;507.30;476.67;;;19.60;99.90;;;;;;5053632;28;20452;-64
2023/08/15 00:54:09;;;;;;;514.90;483.50;;;19.60;99.90;;;;;;5053553;28;20966;-64
2023/08/15 00:56:36;;;;;;;523.13;491.93;;;19.60;99.90;;;;;;5053787;28;20484;-64
2023/08/15 00:59:04;;;;;;;533.97;501.00;;;19.60;99.90;;;;;;5053706;28;20451;-64
2023/08/15 01:01:32;;;;;;;515.23;484.70;;;19.60;99.90;;;;;;5053619;28;20859;-63
2023/08/15 01:04:02;;;;;;;555.50;523.10;;;19.50;99.90;;;;;;5053490;28;20454;-64
2023/08/15 01:06:29;;;;;;;571.37;537.57;;;19.40;99.90;;;;;;5053466;28;20448;-63
2023/08/15 01:08:56;;;;;;;560.60;527.30;;;19.40;99.90;;;;;;5053396;28;20447;-64
2023/08/15 01:11:24;;;;;;;574.30;539.30;;;19.40;99.90;;;;;;5053194;28;20459;-64
2023/08/15 01:13:59;;;;;;;580.87;545.83;;;19.40;99.90;;;;;;5053193;28;20977;-64
2023/08/15 01:16:30;;;;;;;596.70;560.10;;;19.40;99.90;;;;;;5053678;28;20478;-64
2023/08/15 01:19:06;;;;;;;604.87;566.57;;;19.40;99.90;;;;;;5053294;28;20451;-64
2023/08/15 01:21:39;;;;;;;616.47;577.80;;;19.40;99.90;;;;;;5053583;28;20447;-64
2023/08/15 01:24:08;;;;;;;533.07;501.83;;;19.50;99.90;;;;;;5053289;28;20454;-64
2023/08/15 01:26:36;;;;;;;511.13;482.23;;;19.50;99.90;;;;;;5053345;28;20817;-64
2023/08/15 01:29:03;;;;;;;483.40;456.73;;;19.40;99.90;;;;;;5053152;28;20456;-64
2023/08/15 01:31:35;;;;;;;517.50;487.37;;;19.40;99.90;;;;;;5053186;28;20546;-64
2023/08/15 01:34:10;;;;;;;492.00;462.00;;;19.50;99.90;;;;;;5052735;28;20451;-64
2023/08/15 01:36:44;;;;;;;485.83;456.13;;;19.60;99.90;;;;;;5053171;28;20886;-63
2023/08/15 01:39:15;;;;;;;465.30;438.07;;;19.70;99.90;;;;;;5053127;28;20809;-63
2023/08/15 01:41:43;;;;;;;467.77;440.80;;;19.70;99.90;;;;;;5053311;28;20447;-63
2023/08/15 01:44:12;;;;;;;441.93;416.70;;;19.80;99.90;;;;;;5052176;28;20821;-64
2023/08/15 01:46:39;;;;;;;431.40;406.60;;;19.80;99.90;;;;;;5053171;28;20449;-63
2023/08/15 01:49:06;;;;;;;431.67;407.37;;;19.90;99.90;;;;;;5052650;28;20498;-64
2023/08/15 01:51:33;;;;;;;391.50;370.97;;;20.00;99.90;;;;;;5052804;28;20826;-63
2023/08/15 01:54:00;;;;;;;383.43;363.97;;;20.00;99.90;;;;;;5052727;28;20447;-63
2023/08/15 01:56:28;;;;;;;412.90;390.47;;;20.00;99.90;;;;;;5052447;28;20452;-64
2023/08/15 01:58:55;;;;;;;414.03;392.20;;;20.10;99.90;;;;;;5052474;28;20793;-64
2023/08/15 02:01:21;;;;;;;398.10;377.50;;;20.10;99.90;;;;;;5052414;28;20451;-63
2023/08/15 02:03:48;;;;;;;396.93;376.40;;;20.20;99.90;;;;;;5052295;28;20448;-64
2023/08/15 02:06:15;;;;;;;390.43;370.40;;;20.30;99.90;;;;;;5052847;28;20814;-64
2023/08/15 02:08:42;;;;;;;397.70;377.20;;;20.30;99.90;;;;;;5052495;28;20450;-64
2023/08/15 02:11:09;;;;;;;402.03;381.10;;;20.40;99.90;;;;;;5052352;28;20451;-64
2023/08/15 02:13:37;;;;;;;395.10;374.77;;;20.40;99.90;;;;;;5052117;28;20447;-64
2023/08/15 02:16:04;;;;;;;400.30;379.20;;;20.40;99.90;;;;;;5052462;28;20448;-63
2023/08/15 02:18:32;;;;;;;390.57;370.57;;;20.50;99.90;;;;;;5052394;28;20607;-64
2023/08/15 02:20:59;;;;;;;392.77;372.67;;;20.60;99.90;;;;;;5052221;28;20451;-64
2023/08/15 02:23:26;;;;;;;392.67;373.23;;;20.60;99.90;;;;;;5052119;28;20448;-64
2023/08/15 02:25:53;;;;;;;387.00;368.00;;;20.60;99.90;;;;;;5052179;28;20448;-64
2023/08/15 02:28:20;;;;;;;375.43;356.70;;;20.70;99.90;;;;;;5052044;28;20448;-64
2023/08/15 02:30:48;;;;;;;395.87;376.77;;;20.70;99.90;;;;;;5052007;28;20944;-64
2023/08/15 02:33:15;;;;;;;403.47;384.50;;;20.70;99.90;;;;;;5052131;28;20458;-63
2023/08/15 02:35:42;;;;;;;416.80;396.00;;;20.70;99.90;;;;;;5052097;28;20455;-63
2023/08/15 02:38:10;;;;;;;417.00;395.03;;;20.70;99.90;;;;;;5051568;28;20479;-61
2023/08/15 02:40:36;;;;;;;536.37;508.00;;;20.50;99.90;;;;;;5051590;28;20450;-60
2023/08/15 02:43:03;;;;;;;685.13;648.10;;;20.50;99.90;;;;;;5052061;28;20474;-60
2023/08/15 02:45:31;;;;;;;862.07;810.80;;;20.40;99.90;;;;;;5052003;28;20902;-60
2023/08/15 02:47:59;;;;;;;873.83;819.93;;;20.40;99.90;;;;;;5051948;28;20447;-60
2023/08/15 02:50:27;;;;;;;873.77;817.30;;;20.30;99.90;;;;;;5051617;28;20470;-60
2023/08/15 02:52:54;;;;;;;872.00;813.87;;;20.30;99.90;;;;;;5051821;28;20814;-60
2023/08/15 02:55:20;;;;;;;862.20;803.80;;;20.40;99.90;;;;;;5051698;28;20447;-60
2023/08/15 02:57:48;;;;;;;852.57;794.87;;;20.30;99.90;;;;;;5054912;28;20450;-60
2023/08/15 03:00:16;;;;;;;855.80;794.87;;;20.30;99.90;;;;;;5055841;28;20447;-60
2023/08/15 03:02:42;;;;;;;865.87;804.40;;;20.30;99.90;;;;;;5055683;28;20452;-60
2023/08/15 03:05:11;;;;;;;861.57;798.53;;;20.20;99.90;;;;;;5055905;28;20447;-60
2023/08/15 03:07:37;;;;;;;877.17;808.30;;;20.30;99.90;;;;;;5055892;28;20446;-60
2023/08/15 03:10:04;;;;;;;889.03;815.73;;;20.30;99.90;;;;;;5055637;28;20942;-60
2023/08/15 03:12:32;;;;;;;891.50;816.47;;;20.20;99.90;;;;;;5055527;28;20454;-60
2023/08/15 03:14:58;;;;;;;898.17;821.77;;;20.20;99.90;;;;;;5055795;28;20447;-59
2023/08/15 03:17:25;;;;;;;1037.83;968.53;;;20.10;99.90;;;;;;5055640;28;20481;-60
2023/08/15 03:19:53;;;;;;;1106.50;999.90;;;20.10;99.90;;;;;;5055454;28;20452;-59
2023/08/15 03:22:22;;;;;;;1150.23;999.90;;;20.10;99.90;;;;;;5055194;28;20419;-59
2023/08/15 03:24:48;;;;;;;1141.60;999.90;;;20.00;99.90;;;;;;5055665;28;20451;-59
2023/08/15 03:27:15;;;;;;;1159.10;999.90;;;20.00;99.90;;;;;;5055584;28;20448;-59
2023/08/15 03:29:42;;;;;;;1153.97;999.90;;;19.90;99.90;;;;;;5055460;28;20446;-59
2023/08/15 03:32:09;;;;;;;1149.80;999.90;;;19.90;99.90;;;;;;5055258;28;20447;-59
2023/08/15 03:34:35;;;;;;;1142.40;999.90;;;19.90;99.90;;;;;;5055309;28;20451;-59
2023/08/15 03:37:02;;;;;;;1170.50;999.90;;;19.80;99.90;;;;;;5055042;28;20527;-59
2023/08/15 03:39:30;;;;;;;1147.57;999.90;;;19.80;99.90;;;;;;5055129;28;20452;-59
2023/08/15 03:41:57;;;;;;;1133.90;999.90;;;19.80;99.90;;;;;;5055395;28;20794;-59
2023/08/15 03:44:24;;;;;;;1129.23;999.90;;;19.70;99.90;;;;;;5055155;28;20447;-59
2023/08/15 03:46:51;;;;;;;1103.77;999.90;;;19.70;99.90;;;;;;5055136;28;20460;-59
2023/08/15 03:49:17;;;;;;;1086.60;997.00;;;19.70;99.90;;;;;;5054809;28;20485;-59
2023/08/15 03:51:44;;;;;;;1089.93;999.70;;;19.70;99.90;;;;;;5054886;28;20454;-59
2023/08/15 03:54:11;;;;;;;1072.63;984.13;;;19.60;99.90;;;;;;5054900;28;20448;-60
2023/08/15 03:56:39;;;;;;;1073.63;984.50;;;19.40;99.90;;;;;;5054852;28;20455;-60
2023/08/15 03:59:06;;;;;;;1080.97;990.50;;;19.40;99.90;;;;;;5054744;28;20844;-59
2023/08/15 04:01:33;;;;;;;1092.67;999.90;;;19.40;99.90;;;;;;5054751;28;20452;-60
2023/08/15 04:04:00;;;;;;;1084.93;993.93;;;19.40;99.90;;;;;;5054498;28;20448;-59
2023/08/15 04:06:26;;;;;;;1086.63;995.03;;;19.30;99.90;;;;;;5054891;28;20455;-60
2023/08/15 04:08:53;;;;;;;1089.90;998.20;;;19.30;99.90;;;;;;5054047;28;20440;-60
2023/08/15 04:11:20;;;;;;;1083.63;990.30;;;19.20;99.90;;;;;;5054659;28;20458;-60
2023/08/15 04:13:48;;;;;;;1083.23;989.33;;;19.30;99.90;;;;;;5054345;28;20458;-60
2023/08/15 04:16:15;;;;;;;1096.10;999.90;;;19.30;99.90;;;;;;5054481;28;20538;-60
2023/08/15 04:18:42;;;;;;;1124.20;999.90;;;19.30;99.90;;;;;;5054273;28;20497;-60
2023/08/15 04:21:11;;;;;;;1131.73;999.90;;;19.20;99.90;;;;;;5054616;28;20457;-59
2023/08/15 04:23:37;;;;;;;1115.77;999.90;;;19.20;99.90;;;;;;5054588;28;20447;-60
2023/08/15 04:26:05;;;;;;;1103.70;999.90;;;19.20;99.90;;;;;;5054561;28;20443;-59
2023/08/15 04:28:32;;;;;;;1096.97;999.90;;;19.30;99.90;;;;;;5054451;28;20454;-60
2023/08/15 04:31:00;;;;;;;1069.80;981.40;;;19.30;99.90;;;;;;5054191;28;20458;-60
2023/08/15 04:33:27;;;;;;;1079.47;989.37;;;19.30;99.90;;;;;;5053998;28;20458;-60
2023/08/15 04:35:54;;;;;;;1099.87;999.90;;;19.30;99.90;;;;;;5054353;28;20862;-59
2023/08/15 04:38:21;;;;;;;1083.93;993.47;;;19.30;99.90;;;;;;5053839;28;20482;-60
2023/08/15 04:40:48;;;;;;;1090.17;999.90;;;19.40;99.90;;;;;;5054064;28;20452;-60
2023/08/15 04:43:15;;;;;;;1087.57;998.87;;;19.30;99.90;;;;;;5053803;28;20452;-60
2023/08/15 04:45:43;;;;;;;1064.30;976.27;;;19.30;99.90;;;;;;5053869;28;20447;-60
2023/08/15 04:48:12;;;;;;;1080.57;990.93;;;19.30;99.90;;;;;;5053869;28;20448;-60
2023/08/15 04:50:39;;;;;;;1074.87;987.93;;;19.30;99.90;;;;;;5053760;28;20882;-59
2023/08/15 04:53:07;;;;;;;1073.13;986.23;;;19.30;99.90;;;;;;5054091;28;20458;-59
2023/08/15 04:55:33;;;;;;;1089.63;999.90;;;19.30;99.90;;;;;;5053829;28;20447;-60
2023/08/15 04:58:00;;;;;;;1092.83;999.90;;;19.30;99.90;;;;;;5053683;28;20487;-60
2023/08/15 05:00:28;;;;;;;1106.73;999.90;;;19.30;99.90;;;;;;5053838;28;20451;-60
2023/08/15 05:02:54;;;;;;;1096.67;999.90;;;19.30;99.90;;;;;;5053581;28;20972;-59
2023/08/15 05:05:23;;;;;;;1120.27;999.90;;;19.30;99.90;;;;;;5053769;28;20454;-59
2023/08/15 05:07:50;;;;;;;1101.47;999.90;;;19.30;99.90;;;;;;5053544;28;20829;-59
2023/08/15 05:10:17;;;;;;;1078.10;988.37;;;19.40;99.90;;;;;;5053275;28;20451;-59
2023/08/15 05:12:43;;;;;;;1078.43;989.60;;;19.40;99.90;;;;;;5053276;28;20816;-60
2023/08/15 05:15:11;;;;;;;1075.83;985.63;;;19.40;99.90;;;;;;5053617;28;20455;-59
2023/08/15 05:17:37;;;;;;;1080.90;989.27;;;19.50;99.90;;;;;;5053433;28;20486;-59
2023/08/15 05:20:05;;;;;;;1076.27;985.77;;;19.50;99.90;;;;;;5052528;28;20447;-60
2023/08/15 05:22:33;;;;;;;1084.87;993.47;;;19.50;99.90;;;;;;5053032;28;20947;-60
2023/08/15 05:25:00;;;;;;;1090.00;998.13;;;19.60;99.90;;;;;;5053172;28;20447;-60
2023/08/15 05:27:27;;;;;;;1090.53;998.07;;;19.60;99.90;;;;;;5052957;28;20447;-60
2023/08/15 05:29:54;;;;;;;1089.50;997.67;;;19.60;99.90;;;;;;5053004;28;20456;-59
2023/08/15 05:32:21;;;;;;;1087.43;996.87;;;19.60;99.90;;;;;;5053052;28;20452;-60
2023/08/15 05:34:48;;;;;;;1086.07;995.60;;;19.60;99.90;;;;;;5052991;28;20947;-60
2023/08/15 05:37:15;;;;;;;1063.20;973.97;;;19.60;99.90;;;;;;5053026;28;20456;-60
2023/08/15 05:39:43;;;;;;;1054.83;966.37;;;19.70;99.90;;;;;;5052794;28;20502;-60
2023/08/15 05:42:10;;;;;;;1049.03;960.43;;;19.70;99.90;;;;;;5052538;28;20455;-60
2023/08/15 05:44:37;;;;;;;1039.87;951.27;;;19.80;99.90;;;;;;5052992;28;20830;-60
2023/08/15 05:47:04;;;;;;;1025.77;938.97;;;19.80;99.90;;;;;;5052954;28;20447;-60
2023/08/15 05:49:31;;;;;;;999.20;916.33;;;19.90;99.90;;;;;;5052957;28;20477;-60
2023/08/15 05:52:00;;;;;;;989.97;906.17;;;20.00;99.90;;;;;;5052562;28;20447;-59
2023/08/15 05:54:26;;;;;;;987.27;905.60;;;20.10;99.90;;;;;;5052120;28;20495;-60
2023/08/15 05:56:54;;;;;;;972.57;892.77;;;20.10;99.90;;;;;;5052812;28;20817;-60
2023/08/15 05:59:21;;;;;;;931.20;853.90;;;20.10;99.90;;;;;;5052433;28;20987;-60
2023/08/15 06:01:48;;;;;;;936.17;859.37;;;20.10;99.90;;;;;;5052293;28;20529;-60
2023/08/15 06:04:15;;;;;;;888.97;817.80;;;20.00;99.90;;;;;;5052384;28;20550;-60
2023/08/15 06:06:42;;;;;;;863.80;795.37;;;20.00;99.90;;;;;;5052465;28;20452;-60
2023/08/15 06:09:09;;;;;;;862.13;793.30;;;19.90;99.90;;;;;;5052199;28;20451;-60
2023/08/15 06:11:36;;;;;;;851.30;783.87;;;19.90;99.90;;;;;;5052530;28;20447;-60
2023/08/15 06:14:05;;;;;;;848.07;780.40;;;19.80;99.90;;;;;;5052364;28;20452;-60
2023/08/15 06:16:32;;;;;;;841.23;773.97;;;19.80;99.90;;;;;;5052591;28;20447;-60
2023/08/15 06:18:58;;;;;;;834.53;770.63;;;19.80;99.90;;;;;;5052341;28;20520;-60
2023/08/15 06:21:25;;;;;;;829.03;765.63;;;19.70;99.90;;;;;;5052128;28;20448;-60
2023/08/15 06:23:52;;;;;;;838.30;771.70;;;19.70;99.90;;;;;;5052010;28;20448;-60
2023/08/15 06:26:19;;;;;;;840.87;773.40;;;19.70;99.90;;;;;;5052386;28;20531;-60
2023/08/15 06:28:46;;;;;;;843.93;776.37;;;19.70;99.90;;;;;;5052296;28;20451;-60
2023/08/15 06:31:14;;;;;;;817.73;757.13;;;19.80;99.90;;;;;;5052043;28;20859;-60
2023/08/15 06:33:41;;;;;;;809.80;753.53;;;19.60;99.90;;;;;;5052021;28;20543;-60
2023/08/15 06:36:07;;;;;;;806.13;752.50;;;19.50;99.90;;;;;;5052390;28;20463;-60
2023/08/15 06:38:34;;;;;;;785.17;737.80;;;19.40;99.90;;;;;;5051979;28;20479;-61
2023/08/15 06:41:02;;;;;;;789.67;741.73;;;19.20;99.90;;;;;;5051957;28;20451;-61
2023/08/15 06:43:29;;;;;;;791.10;740.60;;;19.30;99.90;;;;;;5051950;28;20451;-61
2023/08/15 06:45:56;;;;;;;788.60;739.53;;;19.30;99.90;;;;;;5052242;28;20803;-61
2023/08/15 06:48:24;;;;;;;770.83;725.63;;;19.40;99.90;;;;;;5052040;28;20443;-62
2023/08/15 06:50:51;;;;;;;722.43;686.13;;;19.40;99.90;;;;;;5051671;28;20981;-61
2023/08/15 06:53:17;;;;;;;739.00;700.57;;;19.30;99.90;;;;;;5052067;28;20462;-61
2023/08/15 06:55:44;;;;;;;735.90;697.93;;;19.30;99.90;;;;;;5051921;28;20457;-61
2023/08/15 06:58:11;;;;;;;775.20;730.90;;;19.30;99.90;;;;;;5051875;28;20811;-61
2023/08/15 07:00:38;;;;;;;776.53;733.53;;;19.40;99.90;;;;;;5051944;28;20443;-62
2023/08/15 07:03:05;;;;;;;792.30;747.40;;;19.40;99.90;;;;;;5049983;28;20821;-62
2023/08/15 07:05:34;;;;;;;800.97;754.77;;;19.40;99.90;;;;;;5051233;28;20462;-62
2023/08/15 07:08:03;;;;;;;798.70;752.63;;;19.50;99.90;;;;;;5051331;28;20448;-62
2023/08/15 07:10:30;;;;;;;719.67;684.40;;;19.60;99.90;;;;;;5051218;28;20459;-63
2023/08/15 07:12:56;;;;;;;638.47;610.73;;;19.60;99.90;;;;;;5051436;28;20865;-63
2023/08/15 07:15:23;;;;;;;685.93;654.83;;;19.70;99.90;;;;;;5051316;28;20448;-63
2023/08/15 07:17:50;;;;;;;628.93;602.50;;;19.80;99.90;;;;;;5051277;28;20802;-63
2023/08/15 07:20:17;;;;;;;550.90;529.10;;;20.10;99.90;;;;;;5050939;28;20483;-63
2023/08/15 07:22:45;;;;;;;446.03;430.30;;;20.20;99.90;;;;;;5051274;28;20794;-63
2023/08/15 07:25:13;;;;;;;325.67;314.87;;;20.40;99.90;;;;;;5051285;28;20483;-64
2023/08/15 07:27:40;;;;;;;352.37;340.70;;;20.70;99.90;;;;;;5051070;28;20454;-65
2023/08/15 07:30:08;;;;;;;396.37;382.80;;;21.00;99.90;;;;;;5051031;28;20447;-64
2023/08/15 07:32:36;;;;;;;237.47;229.77;;;21.40;99.90;;;;;;5050606;28;20554;-64
2023/08/15 07:35:03;;;;;;;108.37;104.13;;;21.50;99.90;;;;;;5051176;28;20501;-64
2023/08/15 07:37:30;;;;;;;43.70;41.57;;;21.70;99.90;;;;;;5051790;28;20540;-65
2023/08/15 07:40:03;;;;;;;36.37;34.50;;;21.90;99.90;;;;;;5051700;28;20485;-65
2023/08/15 07:42:30;;;;;;;143.87;138.87;;;22.10;99.90;;;;;;5052128;28;20451;-65
2023/08/15 07:44:57;;;;;;;84.43;80.77;;;22.40;99.90;;;;;;5054909;28;20447;-64
2023/08/15 07:47:24;;;;;;;16.30;15.13;;;22.70;99.90;;;;;;5054949;28;20459;-64
2023/08/15 07:49:50;;;;;;;24.03;22.57;;;22.90;99.90;;;;;;5054989;28;20931;-65
2023/08/15 07:52:50;;;;;;;18.13;16.87;;;23.10;99.90;;;;;;5130610;27;20553;-64
2023/08/15 07:55:17;;;;;;;13.63;12.43;;;23.20;99.90;;;;;;5130587;28;20448;-64
2023/08/15 07:57:44;;;;;;;7.97;7.07;;;23.40;99.90;;;;;;5129135;28;20451;-64
2023/08/15 08:00:13;;;;;;;8.47;4.10;;;23.40;99.90;;;;;;5130306;28;20448;-64
2023/08/15 08:02:39;;;;;;;8.07;3.30;;;23.30;99.90;;;;;;5129968;28;20923;-64
2023/08/15 08:05:07;;;;;;;7.80;3.90;;;23.40;99.90;;;;;;5129978;27;20927;-64
2023/08/15 08:07:34;;;;;;;9.50;4.20;;;23.70;99.90;;;;;;5130079;28;20472;-64
2023/08/15 08:10:03;;;;;;;8.40;4.60;;;23.80;99.90;;;;;;5129708;28;20458;-64
2023/08/15 08:12:30;;;;;;;11.20;3.40;;;24.00;99.90;;;;;;5129816;27;20472;-64
2023/08/15 08:14:58;;;;;;;9.27;3.17;;;23.90;97.50;;;;;;5130024;27;20444;-64
2023/08/15 08:17:25;;;;;;;8.87;3.30;;;24.00;99.40;;;;;;5129777;28;20464;-64
2023/08/15 08:19:52;;;;;;;8.87;3.20;;;23.90;99.90;;;;;;5129863;28;20475;-64
2023/08/15 08:22:19;;;;;;;8.10;3.63;;;23.80;99.90;;;;;;5129401;28;20451;-64
2023/08/15 08:24:46;;;;;;;8.63;3.13;;;23.90;99.90;;;;;;5129866;28;20452;-64
2023/08/15 08:27:14;;;;;;;12.83;3.13;;;24.10;96.80;;;;;;5129723;28;20455;-64
2023/08/15 08:29:41;;;;;;;7.60;3.20;;;24.10;98.70;;;;;;5129361;28;20444;-64
2023/08/15 08:32:08;;;;;;;8.63;3.87;;;24.30;97.90;;;;;;5129217;28;20472;-64
2023/08/15 08:34:36;;;;;;;7.50;3.40;;;24.50;97.00;;;;;;5129075;28;20451;-63
2023/08/15 08:37:03;;;;;;;8.10;2.40;;;24.70;97.10;;;;;;5129176;27;20448;-62
2023/08/15 08:39:29;;;;;;;9.10;3.20;;;25.00;97.40;;;;;;5129020;28;20444;-62
2023/08/15 08:41:56;;;;;;;9.47;3.67;;;25.10;99.20;;;;;;5129659;28;20448;-62
2023/08/15 08:44:27;;;;;;;9.00;3.47;;;25.30;97.30;;;;;;5129882;28;20444;-62
2023/08/15 08:46:54;;;;;;;9.60;3.20;;;25.50;95.20;;;;;;5128891;28;21026;-62
2023/08/15 08:49:23;;;;;;;10.47;3.13;;;25.70;94.00;;;;;;5129547;28;20474;-62
2023/08/15 08:51:51;;;;;;;8.13;2.97;;;25.80;90.50;;;;;;5129387;28;20483;-62
2023/08/15 08:54:18;;;;;;;4.90;1.80;;;25.90;90.50;;;;;;5129617;28;20455;-62
2023/08/15 08:56:47;;;;;;;11.07;2.70;;;25.80;88.50;;;;;;5129460;28;20529;-63
2023/08/15 08:59:16;;;;;;;6.57;2.50;;;26.00;90.50;;;;;;5129346;28;20957;-62
2023/08/15 09:01:44;;;;;;;9.90;2.20;;;26.10;87.50;;;;;;5129285;28;20450;-62
2023/08/15 09:04:11;;;;;;;7.87;2.90;;;26.50;90.70;;;;;;5115222;28;20452;-62
2023/08/15 09:06:38;;;;;;;8.57;2.73;;;26.50;68.20;;;;;;5115616;28;20449;-63
2023/08/15 09:09:06;;;;;;;8.00;2.07;;;26.70;83.90;;;;;;5115473;28;20935;-62
2023/08/15 09:11:34;;;;;;;13.17;3.10;;;26.90;65.00;;;;;;5115521;28;20831;-62
2023/08/15 09:14:03;;;;;;;11.90;3.03;;;27.20;67.90;;;;;;5115387;28;20456;-62
2023/08/15 09:16:30;;;;;;;9.87;3.00;;;27.30;67.80;;;;;;5115402;28;20448;-62
2023/08/15 09:19:01;;;;;;;9.97;2.90;;;27.20;61.60;;;;;;5115240;28;20455;-62
2023/08/15 09:21:28;;;;;;;8.27;3.27;;;27.10;67.80;;;;;;5115512;28;20782;-62
2023/08/15 09:23:56;;;;;;;6.47;2.60;;;27.30;59.60;;;;;;5115223;28;20445;-62
2023/08/15 09:26:25;;;;;;;9.10;3.10;;;27.50;59.70;;;;;;5115369;28;20501;-62
2023/08/15 09:28:52;;;;;;;8.03;3.97;;;27.60;55.30;;;;;;5115223;28;21003;-62
2023/08/15 09:31:19;;;;;;;7.23;2.70;;;27.90;59.70;;;;;;5114959;28;20538;-62
2023/08/15 09:33:47;;;;;;;9.63;3.50;;;27.70;59.70;;;;;;5115182;28;20444;-63
2023/08/15 09:36:16;;;;;;;7.23;2.63;;;27.90;68.40;;;;;;5115236;28;20499;-62
2023/08/15 09:38:43;;;;;;;7.80;2.97;;;28.00;60.00;;;;;;5115083;28;20449;-62
2023/08/15 09:41:12;;;;;;;12.70;3.10;;;28.30;51.40;;;;;;5114907;28;20961;-63
2023/08/15 09:43:51;;;;;;;10.03;3.40;;;28.30;52.70;;;;;;5114661;28;20952;-63
2023/08/15 09:46:18;;;;;;;6.53;2.60;;;28.20;47.00;;;;;;5115083;28;20447;-63
2023/08/15 09:48:47;;;;;;;9.93;3.70;;;27.90;49.00;;;;;;5114884;28;20451;-63
2023/08/15 09:51:16;;;;;;;12.07;2.80;;;28.00;48.80;;;;;;5114488;28;20515;-62
2023/08/15 09:53:44;;;;;;;7.43;2.80;;;28.20;44.30;;;;;;5114615;28;20429;-62
2023/08/15 09:56:11;;;;;;;9.53;3.70;;;28.90;43.50;;;;;;5114568;28;20452;-63
2023/08/15 09:58:38;;;;;;;6.90;2.67;;;29.20;42.90;;;;;;5114814;28;20452;-63
2023/08/15 10:01:07;;;;;;;7.13;2.50;;;29.70;34.00;;;;;;5114558;28;20452;-62
2023/08/15 10:03:37;;;;;;;7.30;2.90;;;30.00;34.20;;;;;;5114334;28;20444;-63
2023/08/15 10:06:07;;;;;;;7.43;2.60;;;29.50;33.90;;;;;;5114602;28;20475;-62
2023/08/15 10:08:38;;;;;;;7.77;2.30;;;29.10;33.60;;;;;;5114915;28;20445;-62
2023/08/15 10:11:08;;;;;;;9.20;2.50;;;29.20;33.70;;;;;;5114281;28;20482;-62
2023/08/15 10:13:37;;;;;;;5.93;2.47;;;28.80;33.40;;;;;;5114064;28;20444;-62
2023/08/15 10:16:06;;;;;;;8.73;3.27;;;28.90;33.50;;;;;;5113580;28;20458;-62
2023/08/15 10:18:34;;;;;;;7.30;2.53;;;28.90;33.50;;;;;;5114133;28;20451;-63
2023/08/15 10:21:02;;;;;;;7.83;3.87;;;29.00;40.90;;;;;;5114000;28;20445;-62
2023/08/15 10:23:30;;;;;;;10.50;3.67;;;29.00;33.50;;;;;;5114170;28;20459;-62
2023/08/15 10:25:59;;;;;;;8.27;2.67;;;29.50;30.00;;;;;;5114259;28;20424;-63
2023/08/15 10:28:28;;;;;;;8.00;3.20;;;29.80;34.10;;;;;;5114310;28;20501;-63
2023/08/15 10:30:55;;;;;;;7.47;2.60;;;29.80;25.90;;;;;;5114058;28;20454;-63
2023/08/15 10:33:24;;;;;;;8.67;2.73;;;29.60;25.80;;;;;;5113825;28;20508;-63
2023/08/15 10:36:05;;;;;;;13.20;3.13;;;29.80;28.00;;;;;;5113799;28;20782;-63
2023/08/15 10:38:35;;;;;;;6.43;2.50;;;29.50;25.80;;;;;;5114058;28;20454;-63
2023/08/15 10:41:04;;;;;;;10.83;2.40;;;29.20;25.60;;;;;;5113891;28;20449;-63
2023/08/15 10:43:33;;;;;;;8.67;2.97;;;29.40;30.90;;;;;;5113965;28;20445;-63
2023/08/15 10:46:04;;;;;;;6.17;2.60;;;29.90;26.00;;;;;;5113676;28;20445;-63
2023/08/15 10:48:44;;;;;;;9.90;2.83;;;30.60;22.10;;;;;;5113906;28;20539;-63
2023/08/15 10:51:18;;;;;;;7.67;2.90;;;30.30;25.00;;;;;;5113629;28;20463;-63
2023/08/15 10:53:47;;;;;;;9.40;2.90;;;30.70;18.90;;;;;;5113469;28;20445;-63
2023/08/15 10:56:17;;;;;;;7.73;3.07;;;30.70;18.90;;;;;;5113263;28;20441;-62
2023/08/15 10:58:45;;;;;;;8.27;2.90;;;30.30;18.70;;;;;;5113226;28;20455;-64
2023/08/15 11:01:12;;;;;;;9.10;3.57;;;30.40;18.80;;;;;;5113418;28;20445;-64
2023/08/15 11:03:39;;;;;;;9.10;2.80;;;30.40;18.70;;;;;;5113186;28;20932;-64
2023/08/15 11:06:07;;;;;;;8.20;2.57;;;30.00;18.60;;;;;;5113325;28;20445;-64
2023/08/15 11:08:34;;;;;;;8.63;2.57;;;29.60;18.30;;;;;;5113251;28;20440;-64
2023/08/15 11:11:00;;;;;;;6.87;2.30;;;29.60;18.30;;;;;;5113143;28;20445;-64
2023/08/15 11:13:29;;;;;;;8.17;3.30;;;30.00;18.60;;;;;;5113138;28;20477;-65
2023/08/15 11:15:55;;;;;;;7.97;3.50;;;30.40;18.70;;;;;;5113135;28;20456;-65
2023/08/15 11:18:24;;;;;;;8.67;2.77;;;30.70;15.10;;;;;;5113378;28;20420;-64
2023/08/15 11:20:52;;;;;;;8.10;3.13;;;30.60;11.20;;;;;;5111424;27;20449;-64
2023/08/15 11:23:20;;;;;;;6.30;2.07;;;31.30;11.60;;;;;;5112937;28;20437;-64
2023/08/15 11:25:47;;;;;;;11.13;3.63;;;31.70;9.40;;;;;;5112177;28;20452;-64
2023/08/15 11:28:14;;;;;;;6.90;2.10;;;31.80;8.50;;;;;;5112662;28;20461;-65
2023/08/15 11:30:42;;;;;;;6.20;2.33;;;31.80;11.90;;;;;;5112545;28;20769;-64
2023/08/15 11:33:10;;;;;;;13.40;2.73;;;32.70;4.70;;;;;;5112402;28;20566;-65
2023/08/15 11:35:37;;;;;;;8.27;2.70;;;32.40;4.30;;;;;;5112440;28;20459;-64
2023/08/15 11:38:10;;;;;;;8.00;2.10;;;32.50;4.40;;;;;;5112357;28;20434;-64
2023/08/15 11:40:37;;;;;;;7.27;2.40;;;31.90;1.00;;;;;;5112605;28;20416;-65
2023/08/15 11:43:04;;;;;;;8.37;2.40;;;31.90;4.00;;;;;;5112753;28;20449;-64
2023/08/15 11:45:33;;;;;;;7.00;2.10;;;32.10;4.10;;;;;;5112639;28;20483;-65
2023/08/15 11:48:03;;;;;;;7.20;2.17;;;31.90;1.00;;;;;;5112818;28;20445;-64
2023/08/15 11:50:31;;;;;;;7.60;2.23;;;32.50;1.00;;;;;;5112798;28;20924;-65
2023/08/15 11:52:58;;;;;;;7.50;2.13;;;32.40;1.20;;;;;;5112455;28;20499;-65
2023/08/15 11:55:25;;;;;;;10.57;1.97;;;32.20;1.00;;;;;;5112810;28;20452;-65
2023/08/15 11:57:53;;;;;;;7.03;2.27;;;32.30;1.00;;;;;;5112766;28;20453;-65
2023/08/15 12:00:21;;;;;;;8.93;2.10;;;32.10;2.60;;;;;;5112401;28;20454;-65
2023/08/15 12:02:49;;;;;;;13.07;2.33;;;31.50;1.00;;;;;;5112361;28;20898;-65
2023/08/15 12:05:19;;;;;;;7.63;2.30;;;31.90;1.00;;;;;;5112490;28;20444;-65
2023/08/15 12:07:47;;;;;;;7.35;2.25;;;31.80;1.00;;;;;;5112621;28;20449;-64
2023/08/15 12:10:15;;;;;;;12.50;2.17;;;31.90;1.00;;;;;;5112679;28;20197;-64
2023/08/15 12:12:45;;;;;;;10.13;2.20;;;32.20;1.00;;;;;;5112415;28;20454;-64
2023/08/15 12:15:14;;;;;;;6.77;2.23;;;32.20;1.00;;;;;;5112848;28;20449;-64
2023/08/15 12:17:41;;;;;;;8.90;3.63;;;32.10;1.00;;;;;;5112470;28;20475;-64
2023/08/15 12:20:11;;;;;;;8.77;2.50;;;32.50;1.00;;;;;;5112403;28;20463;-64
2023/08/15 12:22:40;;;;;;;8.03;2.13;;;33.10;1.00;;;;;;5112195;28;20916;-64